createdAt,value
2022-10-23T00:02:13.285Z,17.43
2022-10-23T00:04:40.963Z,17.53
2022-10-23T00:07:08.650Z,17.55
2022-10-23T00:09:37.707Z,17.66
2022-10-23T00:12:05.542Z,17.48
2022-10-23T00:14:33.259Z,17.79
2022-10-23T00:17:00.995Z,17.95
2022-10-23T00:19:28.720Z,17.45
2022-10-23T00:21:56.442Z,17.54
2022-10-23T00:24:24.130Z,17.68
2022-10-23T00:26:53.339Z,17.75
2022-10-23T00:29:21.055Z,17.33
2022-10-23T00:31:48.740Z,17.71
2022-10-23T00:34:16.487Z,17.59
2022-10-23T00:36:44.190Z,17.77
2022-10-23T00:39:11.900Z,17.52
2022-10-23T00:41:39.609Z,17.63
2022-10-23T00:44:12.084Z,17.43
2022-10-23T00:46:41.027Z,17.65
2022-10-23T00:49:10.467Z,17.91
2022-10-23T00:51:42.453Z,17.58
2022-10-23T00:54:23.372Z,17.66
2022-10-23T00:56:53.774Z,17.45
2022-10-23T00:59:22.933Z,17.53
2022-10-23T01:01:50.844Z,17.48
2022-10-23T01:04:18.991Z,17.63
2022-10-23T01:06:54.402Z,17.45
2022-10-23T01:09:30.110Z,17.45
2022-10-23T01:12:05.472Z,17.56
2022-10-23T01:14:40.618Z,17.20
2022-10-23T01:17:13.570Z,16.97
2022-10-23T01:19:52.226Z,16.77
2022-10-23T01:22:54.928Z,16.73
2022-10-23T01:25:30.706Z,17.09
2022-10-23T01:28:04.054Z,16.88
2022-10-23T01:30:34.739Z,16.59
2022-10-23T01:33:07.086Z,16.38
2022-10-23T01:35:38.174Z,16.58
2022-10-23T01:38:13.430Z,16.66
2022-10-23T01:40:48.248Z,16.48
2022-10-23T01:43:22.102Z,16.63
2022-10-23T01:45:54.123Z,16.76
2022-10-23T01:48:26.999Z,16.31
2022-10-23T01:50:57.584Z,16.38
2022-10-23T01:53:30.631Z,16.54
2022-10-23T01:56:00.136Z,16.37
2022-10-23T01:58:31.802Z,16.66
2022-10-23T02:01:04.226Z,16.79
2022-10-23T02:03:33.809Z,16.52
2022-10-23T02:06:01.573Z,16.44
2022-10-23T02:08:29.568Z,16.32
2022-10-23T02:11:05.891Z,16.39
2022-10-23T02:13:40.068Z,16.55
2022-10-23T02:16:17.582Z,16.07
2022-10-23T02:18:52.921Z,16.20
2022-10-23T02:21:30.555Z,16.23
2022-10-23T02:24:04.170Z,16.06
2022-10-23T02:26:39.474Z,16.13
2022-10-23T02:29:11.964Z,16.14
2022-10-23T02:31:39.801Z,15.96
2022-10-23T02:34:07.718Z,15.99
2022-10-23T02:36:35.501Z,16.11
2022-10-23T02:39:03.210Z,16.04
2022-10-23T02:41:40.405Z,16.14
2022-10-23T02:44:26.016Z,16.30
2022-10-23T02:47:01.648Z,16.04
2022-10-23T02:49:36.252Z,15.90
2022-10-23T02:52:10.037Z,15.97
2022-10-23T02:54:49.321Z,15.99
2022-10-23T02:57:24.552Z,15.95
2022-10-23T03:00:02.798Z,15.91
2022-10-23T03:02:36.595Z,15.90
2022-10-23T03:05:07.846Z,15.75
2022-10-23T03:07:36.081Z,15.58
2022-10-23T03:10:04.055Z,15.69
2022-10-23T03:12:31.759Z,15.94
2022-10-23T03:15:00.848Z,15.69
2022-10-23T03:17:28.600Z,15.82
2022-10-23T03:19:56.309Z,16.16
2022-10-23T03:22:24.029Z,16.13
2022-10-23T03:24:51.743Z,15.76
2022-10-23T03:27:19.514Z,15.42
2022-10-23T03:29:47.234Z,15.01
2022-10-23T03:32:16.286Z,14.75
2022-10-23T03:34:44.132Z,14.93
2022-10-23T03:37:11.916Z,14.81
2022-10-23T03:39:39.634Z,14.76
2022-10-23T03:42:07.429Z,14.73
2022-10-23T03:44:35.244Z,14.97
2022-10-23T03:47:02.957Z,14.94
2022-10-23T03:49:32.097Z,15.09
2022-10-23T03:51:59.781Z,14.74
2022-10-23T03:54:29.770Z,14.19
2022-10-23T03:56:57.980Z,14.10
2022-10-23T03:59:25.826Z,14.12
2022-10-23T04:01:53.671Z,14.41
2022-10-23T04:04:21.468Z,14.50
2022-10-23T04:06:50.505Z,14.28
2022-10-23T04:09:18.540Z,14.51
2022-10-23T04:11:46.209Z,14.29
2022-10-23T04:14:14.865Z,14.50
2022-10-23T04:16:42.757Z,14.64
2022-10-23T04:19:10.507Z,14.51
2022-10-23T04:21:38.315Z,14.28
2022-10-23T04:24:08.138Z,14.29
2022-10-23T04:26:35.935Z,14.27
2022-10-23T04:29:03.614Z,14.20
2022-10-23T04:31:31.298Z,14.25
2022-10-23T04:33:59.042Z,13.57
2022-10-23T04:36:26.892Z,13.43
2022-10-23T04:38:54.610Z,13.71
2022-10-23T04:41:23.893Z,13.32
2022-10-23T04:43:51.551Z,13.61
2022-10-23T04:46:19.656Z,13.08
2022-10-23T04:48:47.549Z,13.49
2022-10-23T04:51:15.803Z,13.24
2022-10-23T04:53:43.612Z,13.53
2022-10-23T04:56:14.976Z,13.60
2022-10-23T04:58:44.193Z,13.49
2022-10-23T05:01:12.482Z,13.67
2022-10-23T05:03:40.514Z,13.67
2022-10-23T05:06:08.451Z,13.86
2022-10-23T05:08:36.823Z,13.90
2022-10-23T05:11:04.713Z,13.55
2022-10-23T05:13:32.404Z,13.46
2022-10-23T05:16:01.456Z,13.48
2022-10-23T05:18:33.602Z,13.01
2022-10-23T05:21:06.488Z,13.04
2022-10-23T05:23:37.665Z,13.83
2022-10-23T05:26:06.136Z,13.66
2022-10-23T05:28:33.845Z,13.35
2022-10-23T05:31:06.348Z,13.67
2022-10-23T05:33:35.873Z,13.68
2022-10-23T05:36:04.921Z,13.51
2022-10-23T05:38:35.264Z,13.79
2022-10-23T05:41:03.254Z,13.39
2022-10-23T05:43:31.481Z,13.44
2022-10-23T05:45:59.819Z,13.27
2022-10-23T05:48:34.792Z,13.69
2022-10-23T05:51:06.954Z,13.85
2022-10-23T05:53:36.254Z,13.64
2022-10-23T05:56:07.623Z,13.56
2022-10-23T05:58:35.688Z,13.62
2022-10-23T06:01:07.156Z,14.27
2022-10-23T06:03:36.481Z,14.07
2022-10-23T06:06:04.318Z,14.05
2022-10-23T06:08:32.766Z,13.61
2022-10-23T06:11:06.711Z,13.75
2022-10-23T06:13:34.389Z,14.23
2022-10-23T06:16:09.925Z,14.28
2022-10-23T06:18:39.143Z,14.13
2022-10-23T06:21:07.255Z,13.86
2022-10-23T06:23:36.132Z,14.33
2022-10-23T06:26:04.743Z,14.21
2022-10-23T06:28:32.432Z,13.50
2022-10-23T06:31:00.154Z,13.47
2022-10-23T06:33:27.861Z,13.94
2022-10-23T06:35:58.322Z,13.93
2022-10-23T06:38:26.488Z,13.77
2022-10-23T06:40:54.467Z,14.30
2022-10-23T06:43:22.198Z,13.92
2022-10-23T06:45:50.144Z,14.07
2022-10-23T06:48:17.812Z,14.37
2022-10-23T06:50:45.499Z,14.41
2022-10-23T06:53:14.584Z,14.30
2022-10-23T06:55:42.286Z,13.82
2022-10-23T06:58:10.767Z,12.95
2022-10-23T07:00:39.346Z,13.51
2022-10-23T07:03:08.553Z,13.51
2022-10-23T07:05:36.253Z,13.51
2022-10-23T07:08:05.851Z,14.04
2022-10-23T07:10:35.502Z,13.68
2022-10-23T07:13:03.314Z,13.83
2022-10-23T07:15:31.234Z,13.34
2022-10-23T07:17:58.958Z,13.81
2022-10-23T07:20:26.761Z,14.40
2022-10-23T07:22:55.665Z,14.60
2022-10-23T07:25:24.464Z,14.44
2022-10-23T07:27:55.334Z,14.43
2022-10-23T07:30:24.247Z,14.18
2022-10-23T07:32:52.338Z,13.85
2022-10-23T07:35:20.242Z,14.64
2022-10-23T07:37:48.598Z,14.24
2022-10-23T07:40:17.260Z,14.11
2022-10-23T07:42:44.996Z,14.38
2022-10-23T07:45:14.221Z,14.62
2022-10-23T07:47:42.162Z,14.33
2022-10-23T07:50:10.762Z,13.98
2022-10-23T07:52:38.442Z,14.89
2022-10-23T07:55:06.766Z,14.64
2022-10-23T07:57:34.444Z,14.76
2022-10-23T08:00:02.172Z,14.37
2022-10-23T08:02:31.240Z,14.53
2022-10-23T08:04:59.365Z,14.97
2022-10-23T08:07:27.025Z,14.77
2022-10-23T08:09:54.741Z,14.83
2022-10-23T08:12:22.422Z,14.97
2022-10-23T08:14:50.144Z,14.66
2022-10-23T08:17:17.850Z,14.73
2022-10-23T08:19:48.433Z,14.90
2022-10-23T08:22:16.387Z,14.69
2022-10-23T08:24:44.238Z,15.05
2022-10-23T08:27:11.963Z,15.32
2022-10-23T08:29:39.658Z,15.12
2022-10-23T08:32:07.417Z,15.23
2022-10-23T08:34:37.797Z,14.71
2022-10-23T08:37:06.858Z,15.39
2022-10-23T08:39:34.573Z,15.12
2022-10-23T08:42:02.459Z,15.10
2022-10-23T08:44:34.476Z,15.51
2022-10-23T08:47:06.485Z,15.03
2022-10-23T08:49:41.044Z,15.23
2022-10-23T08:52:16.541Z,15.48
2022-10-23T08:54:57.378Z,15.64
2022-10-23T08:57:33.362Z,15.35
2022-10-23T09:00:02.925Z,15.15
2022-10-23T09:02:36.805Z,15.00
2022-10-23T09:05:04.840Z,15.23
2022-10-23T09:07:43.930Z,15.41
2022-10-23T09:10:27.281Z,15.99
2022-10-23T09:12:58.865Z,15.69
2022-10-23T09:15:31.529Z,15.14
2022-10-23T09:18:02.044Z,15.56
2022-10-23T09:20:34.323Z,15.55
2022-10-23T09:23:09.375Z,15.94
2022-10-23T09:25:40.062Z,16.30
2022-10-23T09:28:08.217Z,15.75
2022-10-23T09:30:38.422Z,15.40
2022-10-23T09:33:16.179Z,15.24
2022-10-23T09:35:55.303Z,15.66
2022-10-23T09:38:32.933Z,16.08
2022-10-23T09:41:04.126Z,16.29
2022-10-23T09:43:31.839Z,16.33
2022-10-23T09:46:01.534Z,16.06
2022-10-23T09:48:29.633Z,15.94
2022-10-23T09:50:59.136Z,16.02
2022-10-23T09:53:34.094Z,15.66
2022-10-23T09:56:04.802Z,15.86
2022-10-23T09:58:38.174Z,16.14
2022-10-23T10:01:06.262Z,15.77
2022-10-23T10:03:34.175Z,15.63
2022-10-23T10:06:03.791Z,16.33
2022-10-23T10:08:41.656Z,16.02
2022-10-23T10:11:16.239Z,16.19
2022-10-23T10:14:06.399Z,16.72
2022-10-23T10:16:43.750Z,16.34
2022-10-23T10:19:20.167Z,16.86
2022-10-23T10:21:54.582Z,16.56
2022-10-23T10:24:32.108Z,16.92
2022-10-23T10:27:08.471Z,17.29
2022-10-23T10:29:46.832Z,17.27
2022-10-23T10:32:32.200Z,17.38
2022-10-23T10:35:11.234Z,16.60
2022-10-23T10:37:51.906Z,16.59
2022-10-23T10:40:27.077Z,17.16
2022-10-23T10:43:15.039Z,17.49
2022-10-23T10:45:47.925Z,18.41
2022-10-23T10:48:26.536Z,18.06
2022-10-23T10:50:58.761Z,18.51
2022-10-23T10:53:32.345Z,18.33
2022-10-23T10:56:04.959Z,19.35
2022-10-23T10:58:39.660Z,21.04
2022-10-23T11:01:15.338Z,19.59
2022-10-23T11:03:51.875Z,19.96
2022-10-23T11:06:24.102Z,21.54
2022-10-23T11:08:58.133Z,21.42
2022-10-23T11:11:37.103Z,22.58
2022-10-23T11:14:05.085Z,22.25
2022-10-23T11:16:36.619Z,22.67
2022-10-23T11:19:11.525Z,23.03
2022-10-23T11:21:45.335Z,21.47
2022-10-23T11:24:40.756Z,20.74
2022-10-23T11:27:29.175Z,21.40
2022-10-23T11:30:22.829Z,21.70
2022-10-23T11:33:09.183Z,22.03
2022-10-23T11:35:53.230Z,22.27
2022-10-23T11:38:27.300Z,21.10
2022-10-23T11:40:58.568Z,21.32
2022-10-23T11:43:33.501Z,21.34
2022-10-23T11:46:13.473Z,21.34
2022-10-23T11:48:42.501Z,20.67
2022-10-23T11:51:29.182Z,21.04
2022-10-23T11:54:08.032Z,21.55
2022-10-23T11:56:35.878Z,21.68
2022-10-23T11:59:24.342Z,22.24
2022-10-23T12:01:54.971Z,22.88
2022-10-23T12:04:27.440Z,23.49
2022-10-23T12:06:57.836Z,22.21
2022-10-23T12:09:29.881Z,21.84
2022-10-23T12:12:17.884Z,22.61
2022-10-23T12:14:49.312Z,22.17
2022-10-23T12:17:35.802Z,22.07
2022-10-23T12:20:20.302Z,22.65
2022-10-23T12:22:59.802Z,22.24
2022-10-23T12:25:37.647Z,21.94
2022-10-23T12:28:13.697Z,21.67
2022-10-23T12:30:48.381Z,22.42
2022-10-23T12:33:23.863Z,22.16
2022-10-23T12:36:41.788Z,21.66
2022-10-23T12:39:31.296Z,22.20
2022-10-23T12:42:00.440Z,21.68
2022-10-23T12:44:28.965Z,22.62
2022-10-23T12:47:00.371Z,21.76
2022-10-23T12:49:31.533Z,21.65
2022-10-23T12:52:01.190Z,20.91
2022-10-23T12:54:32.063Z,21.26
2022-10-23T12:57:00.291Z,21.89
2022-10-23T12:59:33.434Z,21.64
2022-10-23T13:02:02.621Z,21.30
2022-10-23T13:04:32.347Z,21.73
2022-10-23T13:07:02.581Z,20.59
2022-10-23T13:09:32.883Z,21.72
2022-10-23T13:12:03.382Z,21.98
2022-10-23T13:14:34.036Z,21.89
2022-10-23T13:17:04.944Z,22.14
2022-10-23T13:19:33.082Z,22.06
2022-10-23T13:22:02.052Z,22.19
2022-10-23T13:24:31.228Z,21.46
2022-10-23T13:26:59.674Z,21.79
2022-10-23T13:29:30.093Z,21.74
2022-10-23T13:31:58.301Z,21.62
2022-10-23T13:34:29.366Z,21.62
2022-10-23T13:37:01.119Z,21.39
2022-10-23T13:39:31.422Z,21.59
2022-10-23T13:42:10.883Z,21.06
2022-10-23T13:44:38.723Z,21.11
2022-10-23T13:47:07.183Z,21.42
2022-10-23T13:49:36.908Z,20.64
2022-10-23T13:52:05.305Z,21.27
2022-10-23T13:54:33.321Z,20.75
2022-10-23T13:57:01.876Z,20.84
2022-10-23T13:59:30.363Z,21.06
2022-10-23T14:01:59.322Z,20.86
2022-10-23T14:04:27.383Z,20.51
2022-10-23T14:06:58.552Z,20.16
2022-10-23T14:09:26.397Z,20.36
2022-10-23T14:11:54.117Z,20.32
2022-10-23T14:14:21.835Z,19.81
2022-10-23T14:16:49.515Z,20.19
2022-10-23T14:19:17.218Z,20.42
2022-10-23T14:21:44.967Z,19.75
2022-10-23T14:24:14.728Z,19.88
2022-10-23T14:26:43.181Z,19.40
2022-10-23T14:29:18.393Z,20.30
2022-10-23T14:31:49.187Z,19.89
2022-10-23T14:34:16.959Z,20.19
2022-10-23T14:36:50.359Z,20.68
2022-10-23T14:39:20.122Z,19.96
2022-10-23T14:41:48.116Z,19.96
2022-10-23T14:44:15.933Z,19.84
2022-10-23T14:46:43.671Z,19.59
2022-10-23T14:49:11.316Z,19.91
2022-10-23T14:51:38.981Z,19.85
2022-10-23T14:54:09.130Z,19.44
2022-10-23T14:56:40.772Z,20.09
2022-10-23T14:59:10.657Z,19.33
2022-10-23T15:01:43.746Z,19.55
2022-10-23T15:04:15.702Z,19.85
2022-10-23T15:06:44.176Z,19.84
2022-10-23T15:09:12.332Z,19.79
2022-10-23T15:11:41.527Z,19.58
2022-10-23T15:14:09.330Z,19.43
2022-10-23T15:16:41.162Z,19.33
2022-10-23T15:19:13.488Z,19.29
2022-10-23T15:21:45.139Z,19.06
2022-10-23T15:24:12.918Z,18.86
2022-10-23T15:26:43.252Z,19.16
2022-10-23T15:29:12.218Z,19.16
2022-10-23T15:31:49.019Z,19.32
2022-10-23T15:34:19.099Z,19.25
2022-10-23T15:36:47.936Z,18.81
2022-10-23T15:39:19.168Z,19.25
2022-10-23T15:41:52.510Z,18.61
2022-10-23T15:44:22.150Z,18.69
2022-10-23T15:46:50.317Z,18.86
2022-10-23T15:49:18.621Z,19.11
2022-10-23T15:51:46.612Z,18.86
2022-10-23T15:54:18.394Z,18.81
2022-10-23T15:56:46.821Z,18.72
2022-10-23T15:59:16.214Z,18.41
2022-10-23T16:01:44.765Z,19.04
2022-10-23T16:04:12.656Z,18.65
2022-10-23T16:06:40.693Z,18.35
2022-10-23T16:09:08.460Z,18.26
2022-10-23T16:11:38.499Z,18.37
2022-10-23T16:14:08.289Z,17.89
2022-10-23T16:16:37.509Z,18.31
2022-10-23T16:19:06.139Z,18.13
2022-10-23T16:21:35.948Z,18.08
2022-10-23T16:24:05.638Z,18.46
2022-10-23T16:26:33.531Z,18.24
2022-10-23T16:29:03.474Z,18.10
2022-10-23T16:31:31.269Z,18.73
2022-10-23T16:34:01.799Z,18.37
2022-10-23T16:36:30.403Z,18.31
2022-10-23T16:38:58.111Z,17.86
2022-10-23T16:41:25.867Z,17.83
2022-10-23T16:43:53.718Z,17.66
2022-10-23T16:46:23.248Z,18.22
2022-10-23T16:48:52.277Z,18.43
2022-10-23T16:51:23.601Z,17.87
2022-10-23T16:53:51.728Z,17.86
2022-10-23T16:56:23.535Z,17.41
2022-10-23T16:58:51.625Z,17.70
2022-10-23T17:01:26.065Z,17.76
2022-10-23T17:03:55.310Z,17.59
2022-10-23T17:06:25.787Z,17.42
2022-10-23T17:08:54.367Z,17.52
2022-10-23T17:11:24.185Z,17.78
2022-10-23T17:13:57.225Z,18.10
2022-10-23T17:16:28.830Z,17.90
2022-10-23T17:18:57.390Z,17.50
2022-10-23T17:21:26.533Z,17.86
2022-10-23T17:23:54.486Z,17.68
2022-10-23T17:26:23.532Z,17.95
2022-10-23T17:28:51.301Z,17.67
2022-10-23T17:31:22.274Z,17.68
2022-10-23T17:33:51.973Z,17.59
2022-10-23T17:36:21.579Z,17.81
2022-10-23T17:38:50.937Z,17.18
2022-10-23T17:41:21.156Z,17.15
2022-10-23T17:43:49.085Z,17.43
2022-10-23T17:46:18.649Z,17.66
2022-10-23T17:48:46.417Z,18.14
2022-10-23T17:51:16.594Z,17.51
2022-10-23T17:53:46.750Z,17.37
2022-10-23T17:56:20.040Z,17.32
2022-10-23T17:58:47.868Z,17.40
2022-10-23T18:01:18.251Z,17.01
2022-10-23T18:03:46.111Z,17.44
2022-10-23T18:06:16.991Z,17.10
2022-10-23T18:08:45.656Z,16.98
2022-10-23T18:11:17.414Z,16.90
2022-10-23T18:13:45.334Z,16.82
2022-10-23T18:16:14.098Z,17.19
2022-10-23T18:18:43.640Z,16.83
2022-10-23T18:21:11.754Z,16.93
2022-10-23T18:23:39.512Z,16.94
2022-10-23T18:26:07.993Z,17.15
2022-10-23T18:28:37.113Z,16.95
2022-10-23T18:31:09.023Z,17.00
2022-10-23T18:33:36.710Z,17.17
2022-10-23T18:36:04.937Z,16.63
2022-10-23T18:38:32.613Z,17.34
2022-10-23T18:41:00.290Z,17.24
2022-10-23T18:43:42.502Z,16.69
2022-10-23T18:46:12.886Z,16.83
2022-10-23T18:48:40.988Z,17.06
2022-10-23T18:51:15.766Z,16.75
2022-10-23T18:53:46.563Z,16.81
2022-10-23T18:56:15.057Z,16.89
2022-10-23T18:58:43.342Z,17.09
2022-10-23T19:01:12.493Z,16.72
2022-10-23T19:03:40.287Z,16.90
2022-10-23T19:06:08.642Z,16.92
2022-10-23T19:08:37.793Z,16.86
2022-10-23T19:11:06.510Z,17.14
2022-10-23T19:13:38.957Z,17.08
2022-10-23T19:16:09.873Z,16.63
2022-10-23T19:18:40.647Z,16.77
2022-10-23T19:21:08.672Z,16.58
2022-10-23T19:23:37.312Z,16.76
2022-10-23T19:26:08.687Z,16.62
2022-10-23T19:28:38.024Z,16.53
2022-10-23T19:31:07.585Z,16.92
2022-10-23T19:33:36.142Z,17.07
2022-10-23T19:36:08.825Z,16.95
2022-10-23T19:38:40.271Z,16.78
2022-10-23T19:41:08.370Z,16.69
2022-10-23T19:43:37.652Z,16.69
2022-10-23T19:46:09.487Z,16.82
2022-10-23T19:48:42.440Z,16.54
2022-10-23T19:51:12.850Z,16.56
2022-10-23T19:53:41.943Z,16.87
2022-10-23T19:56:11.620Z,16.99
2022-10-23T19:58:39.838Z,16.44
2022-10-23T20:01:09.293Z,16.70
2022-10-23T20:03:37.073Z,16.80
2022-10-23T20:06:05.179Z,16.55
2022-10-23T20:08:35.169Z,17.09
2022-10-23T20:11:03.135Z,16.78
2022-10-23T20:13:30.959Z,16.94
2022-10-23T20:15:58.682Z,17.00
2022-10-23T20:18:27.396Z,16.90
2022-10-23T20:20:55.246Z,16.57
2022-10-23T20:23:22.965Z,16.64
2022-10-23T20:25:52.021Z,16.65
2022-10-23T20:28:21.681Z,16.52
2022-10-23T20:30:49.411Z,16.70
2022-10-23T20:33:17.114Z,16.66
2022-10-23T20:35:44.942Z,16.41
2022-10-23T20:38:12.687Z,16.58
2022-10-23T20:40:40.398Z,16.46
2022-10-23T20:43:09.475Z,16.92
2022-10-23T20:45:37.566Z,16.61
2022-10-23T20:48:06.150Z,16.58
2022-10-23T20:50:35.664Z,16.46
2022-10-23T20:53:03.692Z,16.44
2022-10-23T20:55:31.448Z,16.43
2022-10-23T20:57:59.365Z,16.40
2022-10-23T21:00:28.414Z,16.17
2022-10-23T21:03:01.722Z,16.11
2022-10-23T21:05:29.771Z,16.12
2022-10-23T21:07:57.469Z,15.99
2022-10-23T21:10:25.317Z,16.12
2022-10-23T21:12:53.045Z,16.16
2022-10-23T21:15:21.054Z,16.18
2022-10-23T21:17:52.252Z,16.15
2022-10-23T21:20:20.133Z,16.09
2022-10-23T21:22:47.878Z,16.34
2022-10-23T21:25:18.568Z,16.43
2022-10-23T21:27:46.607Z,16.77
2022-10-23T21:30:14.756Z,16.51
2022-10-23T21:32:42.446Z,16.51
2022-10-23T21:35:12.027Z,16.40
2022-10-23T21:37:39.716Z,16.29
2022-10-23T21:40:09.149Z,16.52
2022-10-23T21:42:36.844Z,16.39
2022-10-23T21:45:05.095Z,16.23
2022-10-23T21:47:34.798Z,16.32
2022-10-23T21:50:02.511Z,16.48
2022-10-23T21:52:31.859Z,16.71
2022-10-23T21:54:59.579Z,16.50
2022-10-23T21:57:30.992Z,16.38
2022-10-23T21:59:58.694Z,16.27
2022-10-23T22:02:26.633Z,16.22
2022-10-23T22:04:54.486Z,16.34
2022-10-23T22:07:22.229Z,16.37
2022-10-23T22:09:51.384Z,16.48
2022-10-23T22:12:19.073Z,16.46
2022-10-23T22:14:46.944Z,16.34
2022-10-23T22:17:14.638Z,16.25
2022-10-23T22:19:42.476Z,16.55
2022-10-23T22:22:10.242Z,16.39
2022-10-23T22:24:38.176Z,16.72
2022-10-23T22:27:07.298Z,16.69
2022-10-23T22:29:35.054Z,16.77
2022-10-23T22:32:02.736Z,16.92
2022-10-23T22:34:52.043Z,17.16
2022-10-23T22:37:19.212Z,16.72
2022-10-23T22:39:47.108Z,16.74
2022-10-23T22:42:16.175Z,16.77
2022-10-23T22:44:43.914Z,16.90
2022-10-23T22:47:11.676Z,16.86
2022-10-23T22:49:39.424Z,16.94
2022-10-23T22:52:07.155Z,16.63
2022-10-23T22:54:35.033Z,16.66
2022-10-23T22:57:02.744Z,16.40
2022-10-23T22:59:31.789Z,16.50
2022-10-23T23:01:59.510Z,16.77
2022-10-23T23:04:43.109Z,16.73
2022-10-23T23:07:13.353Z,16.92
2022-10-23T23:09:42.896Z,16.62
2022-10-23T23:12:12.374Z,16.62
2022-10-23T23:14:42.294Z,16.37
2022-10-23T23:17:10.270Z,16.38
2022-10-23T23:19:38.090Z,16.56
2022-10-23T23:22:06.288Z,16.65
2022-10-23T23:24:34.272Z,16.38
2022-10-23T23:27:02.100Z,16.56
2022-10-23T23:29:29.862Z,16.54
2022-10-23T23:31:59.029Z,16.50
2022-10-23T23:34:27.235Z,16.50
2022-10-23T23:36:54.959Z,16.56
2022-10-23T23:39:22.672Z,16.80
2022-10-23T23:41:50.409Z,16.88
2022-10-23T23:44:18.115Z,16.42
2022-10-23T23:46:45.820Z,16.81
2022-10-23T23:49:14.958Z,16.56
2022-10-23T23:51:42.683Z,16.56
2022-10-23T23:54:10.382Z,16.87
2022-10-23T23:56:38.108Z,16.83
2022-10-23T23:59:05.809Z,16.98
